Time;durP1;ratioP1;P1;durP2;ratioP2;P2;SDS_P1;SDS_P2;PMS_P1;PMS_P2;Temp;Humidity;BMP_temperature;BMP_pressure;BME280_temperature;BME280_humidity;BME280_pressure;Samples;Min_cycle;Max_cycle;Signal;HPM_P1;HPM_P2
2022/03/09 00:00:36;;;;;;;;;;;0.80;61.90;;;;;;5070798;28;19980;-86
2022/03/09 00:03:02;;;;;;;;;;;0.70;62.20;;;;;;5070260;28;20397;-86
2022/03/09 00:05:28;;;;;;;;;;;0.70;62.30;;;;;;5036382;28;19924;-86
2022/03/09 00:07:53;;;;;;;;;;;0.70;62.10;;;;;;5034133;28;20292;-86
2022/03/09 00:10:19;;;;;;;;;;;0.70;62.30;;;;;;5070225;28;19916;-86
2022/03/09 00:12:44;;;;;;;;;;;0.70;62.20;;;;;;5052303;28;19909;-85
2022/03/09 00:15:10;;;;;;;;;;;0.70;62.30;;;;;;5053829;28;20007;-86
2022/03/09 00:17:35;;;;;;;;;;;0.70;62.40;;;;;;5017012;28;20469;-86
2022/03/09 00:20:01;;;;;;;;;;;0.70;62.40;;;;;;5070317;28;20295;-86
2022/03/09 00:22:26;;;;;;;;;;;0.70;62.70;;;;;;5053105;28;19909;-86
2022/03/09 00:24:52;;;;;;;;;;;0.70;62.90;;;;;;5056095;23;19972;-86
2022/03/09 00:27:17;;;;;;;;;;;0.60;63.40;;;;;;5049063;28;19924;-87
2022/03/09 00:29:43;;;;;;;;;;;0.50;63.60;;;;;;5046020;28;20011;-86
2022/03/09 00:32:08;;;;;;;;;;;0.50;64.10;;;;;;5030369;28;19920;-87
2022/03/09 00:34:34;;;;;;;;;;;0.40;64.70;;;;;;5055177;28;19924;-87
2022/03/09 00:37:00;;;;;;;;;;;0.30;65.10;;;;;;5054210;28;20380;-87
2022/03/09 00:39:25;;;;;;;;;;;0.30;65.60;;;;;;5045757;28;19917;-86
2022/03/09 00:41:53;;;;;;;;;;;0.10;67.10;;;;;;5022168;28;19925;-86
2022/03/09 00:44:18;;;;;;;;;;;0.10;67.10;;;;;;5030704;28;19925;-86
2022/03/09 00:46:44;;;;;;;;;;;0.00;68.00;;;;;;5040319;28;20018;-85
2022/03/09 00:49:09;;;;;;;;;;;-0.10;68.60;;;;;;5047709;28;20339;-85
2022/03/09 00:51:35;;;;;;;;;;;-0.20;69.10;;;;;;5036268;28;19923;-86
2022/03/09 00:54:01;;;;;;;;;;;-0.20;70.10;;;;;;5050730;28;19913;-86
2022/03/09 00:56:27;;;;;;;;;;;-0.30;70.90;;;;;;5019246;28;19931;-86
2022/03/09 00:58:53;;;;;;;;;;;-0.40;71.70;;;;;;5048926;28;19943;-86
2022/03/09 01:01:18;;;;;;;;;;;-0.40;73.00;;;;;;5025469;28;21663;-86
2022/03/09 01:03:44;;;;;;;;;;;-0.50;74.30;;;;;;5048038;28;19925;-86
2022/03/09 01:06:09;;;;;;;;;;;-0.50;75.30;;;;;;5055879;28;20205;-85
2022/03/09 01:08:35;;;;;;;;;;;-0.60;75.80;;;;;;5051151;28;19927;-86
2022/03/09 01:11:00;;;;;;;;;;;-0.60;76.60;;;;;;5047322;28;20376;-86
2022/03/09 01:13:26;;;;;;;;;;;-0.60;76.90;;;;;;5055457;28;19924;-85
2022/03/09 01:15:53;;;;;;;;;;;-0.60;77.50;;;;;;5024984;28;19917;-85
2022/03/09 01:18:19;;;;;;;;;;;-0.60;77.70;;;;;;5030481;28;20377;-85
2022/03/09 01:20:44;;;;;;;;;;;-0.60;78.10;;;;;;5036183;28;20444;-85
2022/03/09 01:23:10;;;;;;;;;;;-0.60;78.80;;;;;;5038893;28;20012;-86
2022/03/09 01:25:35;;;;;;;;;;;-0.70;80.60;;;;;;5031939;28;19948;-86
2022/03/09 01:28:01;;;;;;;;;;;-0.70;81.70;;;;;;5043607;28;19917;-85
2022/03/09 01:30:26;;;;;;;;;;;-0.80;82.30;;;;;;5023776;28;20284;-86
2022/03/09 01:32:52;;;;;;;;;;;-0.80;82.20;;;;;;5040309;28;19917;-85
2022/03/09 01:35:17;;;;;;;;;;;-0.90;81.40;;;;;;5027367;28;19920;-85
2022/03/09 01:37:45;;;;;;;;;;;-0.90;81.30;;;;;;5048518;28;19940;-85
2022/03/09 01:40:11;;;;;;;;;;;-0.90;81.10;;;;;;5036641;28;19912;-85
2022/03/09 01:42:36;;;;;;;;;;;-1.00;81.30;;;;;;5042847;28;20188;-85
2022/03/09 01:45:03;;;;;;;;;;;-1.00;81.30;;;;;;5038764;28;19917;-85
2022/03/09 01:47:29;;;;;;;;;;;-1.10;81.70;;;;;;5038789;28;19921;-85
2022/03/09 01:49:54;;;;;;;;;;;-1.10;81.90;;;;;;5047680;28;19924;-86
2022/03/09 01:52:20;;;;;;;;;;;-1.10;81.50;;;;;;5034265;28;20004;-85
2022/03/09 01:54:46;;;;;;;;;;;-1.10;80.60;;;;;;5072691;28;19912;-85
2022/03/09 01:57:12;;;;;;;;;;;-1.10;81.00;;;;;;5031966;28;20005;-85
2022/03/09 01:59:37;;;;;;;;;;;-1.10;81.20;;;;;;5078876;28;20007;-85
2022/03/09 02:02:03;;;;;;;;;;;-1.10;80.90;;;;;;5044710;28;19925;-86
2022/03/09 02:04:29;;;;;;;;;;;-1.10;81.20;;;;;;5035940;28;19952;-85
2022/03/09 02:06:54;;;;;;;;;;;-1.10;80.60;;;;;;5041009;28;20319;-86
2022/03/09 02:12:04;;;;;;;;;;;-1.10;80.00;;;;;;5038461;28;19939;-85
2022/03/09 02:14:35;;;;;;;;;;;-1.10;79.40;;;;;;5045259;28;20320;-85
2022/03/09 02:17:04;;;;;;;;;;;-1.10;79.00;;;;;;5034311;28;20432;-85
2022/03/09 02:19:33;;;;;;;;;;;-1.10;78.50;;;;;;5044696;28;19923;-85
2022/03/09 02:22:04;;;;;;;;;;;-1.10;78.90;;;;;;5030124;28;20338;-86
2022/03/09 02:24:29;;;;;;;;;;;-1.10;79.40;;;;;;5044256;28;20389;-85
2022/03/09 02:26:55;;;;;;;;;;;-1.10;79.60;;;;;;5039305;28;19921;-85
2022/03/09 02:29:20;;;;;;;;;;;-1.20;79.20;;;;;;5062202;28;19971;-85
2022/03/09 02:31:46;;;;;;;;;;;-1.20;79.10;;;;;;5065409;28;19917;-85
2022/03/09 02:34:11;;;;;;;;;;;-1.20;78.60;;;;;;5040359;28;19909;-85
2022/03/09 02:36:37;;;;;;;;;;;-1.20;77.90;;;;;;5041783;28;19917;-85
2022/03/09 02:39:02;;;;;;;;;;;-1.10;77.20;;;;;;5043539;28;20308;-85
2022/03/09 02:41:33;;;;;;;;;;;-1.10;77.30;;;;;;5040286;28;20058;-85
2022/03/09 02:44:00;;;;;;;;;;;-1.10;77.80;;;;;;5022019;28;19920;-86
2022/03/09 02:46:25;;;;;;;;;;;-1.20;78.10;;;;;;5034964;28;19917;-85
2022/03/09 02:48:52;;;;;;;;;;;-1.20;78.60;;;;;;5046551;28;20418;-85
2022/03/09 02:51:18;;;;;;;;;;;-1.30;78.80;;;;;;5026081;28;19916;-85
2022/03/09 02:53:43;;;;;;;;;;;-1.40;79.30;;;;;;5047145;28;20289;-85
2022/03/09 02:56:09;;;;;;;;;;;-1.40;79.80;;;;;;5049157;28;19924;-86
2022/03/09 02:58:34;;;;;;;;;;;-1.50;80.40;;;;;;5036935;28;19929;-85
2022/03/09 03:01:00;;;;;;;;;;;-1.50;81.80;;;;;;5031012;28;20335;-85
2022/03/09 03:03:25;;;;;;;;;;;-1.60;82.40;;;;;;5054204;28;19927;-85
2022/03/09 03:05:51;;;;;;;;;;;-1.60;83.20;;;;;;5049741;28;19917;-85
2022/03/09 03:08:17;;;;;;;;;;;-1.70;84.10;;;;;;5043488;28;20419;-85
2022/03/09 03:10:42;;;;;;;;;;;-1.70;84.80;;;;;;5032784;28;19923;-86
2022/03/09 03:13:08;;;;;;;;;;;-1.70;85.50;;;;;;5025357;28;20012;-85
2022/03/09 03:15:33;;;;;;;;;;;-1.70;86.10;;;;;;5024331;28;20451;-85
2022/03/09 03:18:01;;;;;;;;;;;-1.70;86.30;;;;;;5017648;28;19968;-86
2022/03/09 03:20:27;;;;;;;;;;;-1.70;86.60;;;;;;5019392;28;19917;-85
2022/03/09 03:22:52;;;;;;;;;;;-1.70;86.60;;;;;;5035549;28;19928;-86
2022/03/09 03:25:18;;;;;;;;;;;-1.70;86.50;;;;;;5034331;28;20374;-86
2022/03/09 03:27:43;;;;;;;;;;;-1.70;87.00;;;;;;5041706;28;20011;-85
2022/03/09 03:30:09;;;;;;;;;;;-1.70;87.80;;;;;;5030665;28;20378;-85
2022/03/09 03:32:34;;;;;;;;;;;-1.70;88.30;;;;;;5042136;28;19947;-85
2022/03/09 03:35:00;;;;;;;;;;;-1.80;88.90;;;;;;5037038;28;19924;-85
2022/03/09 03:37:25;;;;;;;;;;;-1.80;89.20;;;;;;5037571;28;19928;-86
2022/03/09 03:39:51;;;;;;;;;;;-1.90;89.80;;;;;;5039471;28;19921;-85
2022/03/09 03:42:16;;;;;;;;;;;-1.90;90.30;;;;;;5029708;28;20411;-85
2022/03/09 03:44:42;;;;;;;;;;;-1.90;90.50;;;;;;5030539;28;19948;-86
2022/03/09 03:47:10;;;;;;;;;;;-1.90;90.60;;;;;;5038511;28;19952;-86
2022/03/09 03:49:36;;;;;;;;;;;-1.90;90.60;;;;;;5049062;28;19917;-85
2022/03/09 03:52:02;;;;;;;;;;;-1.90;90.60;;;;;;5037010;28;20395;-86
2022/03/09 03:54:27;;;;;;;;;;;-1.90;90.60;;;;;;5020706;28;20605;-85
2022/03/09 03:56:53;;;;;;;;;;;-1.90;90.90;;;;;;5031329;28;20345;-85
2022/03/09 03:59:18;;;;;;;;;;;-1.90;90.90;;;;;;5039217;28;19979;-85
2022/03/09 04:01:44;;;;;;;;;;;-1.90;90.70;;;;;;5044226;28;20403;-85
2022/03/09 04:04:09;;;;;;;;;;;-1.80;90.50;;;;;;5019602;28;19921;-85
2022/03/09 04:06:35;;;;;;;;;;;-1.80;90.50;;;;;;5031953;28;19917;-85
2022/03/09 04:09:01;;;;;;;;;;;-1.90;91.00;;;;;;5036453;28;20274;-86
2022/03/09 04:11:26;;;;;;;;;;;-2.00;92.10;;;;;;5036646;28;19924;-85
2022/03/09 04:13:52;;;;;;;;;;;-2.10;92.60;;;;;;5022194;28;19925;-85
2022/03/09 04:16:17;;;;;;;;;;;-2.10;92.80;;;;;;5029368;28;19916;-86
2022/03/09 04:18:43;;;;;;;;;;;-2.20;93.40;;;;;;5047702;28;19920;-85
2022/03/09 04:21:08;;;;;;;;;;;-2.30;93.00;;;;;;5016904;28;19917;-85
2022/03/09 04:23:34;;;;;;;;;;;-2.30;93.30;;;;;;5047127;28;19917;-85
2022/03/09 04:26:00;;;;;;;;;;;-2.30;93.50;;;;;;5022770;28;19917;-85
2022/03/09 04:28:26;;;;;;;;;;;-2.40;93.50;;;;;;5043947;28;19917;-85
2022/03/09 04:30:52;;;;;;;;;;;-2.40;93.50;;;;;;5033163;28;19953;-86
2022/03/09 04:33:17;;;;;;;;;;;-2.50;93.90;;;;;;5027736;28;20014;-86
2022/03/09 04:35:43;;;;;;;;;;;-2.50;94.10;;;;;;5039681;28;20397;-85
2022/03/09 04:38:08;;;;;;;;;;;-2.60;95.00;;;;;;5046114;28;19917;-86
2022/03/09 04:40:34;;;;;;;;;;;-2.60;96.90;;;;;;5036034;28;20377;-86
2022/03/09 04:42:59;;;;;;;;;;;-2.70;98.10;;;;;;5035011;28;19927;-86
2022/03/09 04:45:25;;;;;;;;;;;-2.80;98.10;;;;;;5033758;28;19917;-86
2022/03/09 04:47:51;;;;;;;;;;;-2.90;98.80;;;;;;5045213;28;19921;-86
2022/03/09 04:50:16;;;;;;;;;;;-2.90;98.50;;;;;;5026167;28;19917;-86
2022/03/09 04:52:42;;;;;;;;;;;-3.00;98.40;;;;;;5051307;28;19920;-86
2022/03/09 04:55:07;;;;;;;;;;;-2.90;98.30;;;;;;5020507;28;19917;-86
2022/03/09 04:57:35;;;;;;;;;;;-3.00;98.40;;;;;;5034202;28;19921;-86
2022/03/09 05:00:00;;;;;;;;;;;-3.00;98.60;;;;;;5016927;28;19968;-86
2022/03/09 05:02:26;;;;;;;;;;;-3.00;98.40;;;;;;5034140;28;19917;-86
2022/03/09 05:04:51;;;;;;;;;;;-3.00;98.30;;;;;;5034413;28;20638;-86
2022/03/09 05:07:17;;;;;;;;;;;-3.00;98.00;;;;;;5036356;28;20471;-86
2022/03/09 05:09:42;;;;;;;;;;;-2.90;97.50;;;;;;5023942;28;19924;-86
2022/03/09 05:12:08;;;;;;;;;;;-2.80;97.10;;;;;;5041136;28;19917;-86
2022/03/09 05:14:34;;;;;;;;;;;-2.80;96.80;;;;;;5046636;28;19912;-86
2022/03/09 05:16:59;;;;;;;;;;;-2.70;96.40;;;;;;5033634;28;19925;-85
2022/03/09 05:19:25;;;;;;;;;;;-2.70;96.10;;;;;;5040234;28;19978;-86
2022/03/09 05:21:50;;;;;;;;;;;-2.70;95.90;;;;;;5024904;28;19927;-86
2022/03/09 05:24:16;;;;;;;;;;;-2.60;95.80;;;;;;5049960;28;20373;-85
2022/03/09 05:26:43;;;;;;;;;;;-2.60;95.80;;;;;;5020310;28;19921;-85
2022/03/09 05:29:09;;;;;;;;;;;-2.60;95.70;;;;;;5049359;28;20385;-85
2022/03/09 05:31:34;;;;;;;;;;;-2.60;95.60;;;;;;5015158;28;20024;-86
2022/03/09 05:34:00;;;;;;;;;;;-2.60;95.50;;;;;;5015736;28;20397;-85
2022/03/09 05:36:26;;;;;;;;;;;-2.50;95.40;;;;;;5047957;28;19912;-86
2022/03/09 05:38:51;;;;;;;;;;;-2.60;95.30;;;;;;5048991;28;19942;-85
2022/03/09 05:41:17;;;;;;;;;;;-2.60;95.10;;;;;;5034383;28;20351;-85
2022/03/09 05:43:42;;;;;;;;;;;-2.60;95.00;;;;;;5029303;28;19939;-86
2022/03/09 05:46:10;;;;;;;;;;;-2.50;94.90;;;;;;5032477;28;20632;-85
2022/03/09 05:48:36;;;;;;;;;;;-2.60;94.70;;;;;;5032268;28;19920;-86
2022/03/09 05:51:01;;;;;;;;;;;-2.60;95.30;;;;;;5046027;28;20012;-85
2022/03/09 05:53:27;;;;;;;;;;;-2.70;96.40;;;;;;5030881;28;19939;-86
2022/03/09 05:55:52;;;;;;;;;;;-2.70;97.70;;;;;;5014441;28;19979;-85
2022/03/09 05:58:18;;;;;;;;;;;-2.80;98.10;;;;;;5019497;28;20517;-85
2022/03/09 06:00:43;;;;;;;;;;;-2.90;98.40;;;;;;5031308;28;19920;-85
2022/03/09 06:03:09;;;;;;;;;;;-3.00;98.60;;;;;;5033273;28;19925;-85
2022/03/09 06:05:34;;;;;;;;;;;-3.00;98.80;;;;;;5030149;28;19921;-86
2022/03/09 06:08:00;;;;;;;;;;;-3.00;98.60;;;;;;5029252;28;19925;-86
2022/03/09 06:10:25;;;;;;;;;;;-3.00;98.40;;;;;;5020826;28;19921;-86
2022/03/09 06:12:51;;;;;;;;;;;-3.00;98.30;;;;;;5031355;28;19914;-86
2022/03/09 06:15:17;;;;;;;;;;;-3.00;98.10;;;;;;5032882;28;19913;-86
2022/03/09 06:17:43;;;;;;;;;;;-3.00;98.10;;;;;;5034017;28;19921;-85
2022/03/09 06:20:09;;;;;;;;;;;-3.00;98.10;;;;;;5047200;28;19989;-85
2022/03/09 06:22:35;;;;;;;;;;;-3.00;98.20;;;;;;5020131;28;19940;-85
2022/03/09 06:25:05;;;;;;;;;;;-2.90;98.60;;;;;;5014896;28;19928;-86
2022/03/09 06:27:38;;;;;;;;;;;-2.80;98.30;;;;;;5014684;28;20022;-85
2022/03/09 06:30:04;;;;;;;;;;;-2.80;98.40;;;;;;5031761;28;19909;-85
2022/03/09 06:32:29;;;;;;;;;;;-2.70;99.90;;;;;;5031340;28;19920;-86
2022/03/09 06:34:54;;;;;;;;;;;-2.70;99.90;;;;;;5028149;28;19921;-84
2022/03/09 06:37:20;;;;;;;;;;;-2.70;99.90;;;;;;5031941;28;19920;-85
2022/03/09 06:39:45;;;;;;;;;;;-2.60;99.40;;;;;;5014683;28;20004;-85
2022/03/09 06:42:11;;;;;;;;;;;-2.60;98.40;;;;;;5014491;28;19917;-85
2022/03/09 06:44:36;;;;;;;;;;;-2.50;98.00;;;;;;5014450;28;20000;-85
2022/03/09 06:47:04;;;;;;;;;;;-2.50;97.40;;;;;;5019571;28;20362;-85
2022/03/09 06:49:30;;;;;;;;;;;-2.40;97.00;;;;;;5023509;28;20453;-85
2022/03/09 06:51:55;;;;;;;;;;;-2.40;96.50;;;;;;5022776;28;20008;-84
2022/03/09 06:54:21;;;;;;;;;;;-2.30;96.30;;;;;;5044165;28;19913;-84
2022/03/09 06:56:47;;;;;;;;;;;-2.30;96.10;;;;;;5024713;28;19913;-85
2022/03/09 06:59:12;;;;;;;;;;;-2.20;96.00;;;;;;5014960;28;19925;-84
2022/03/09 07:01:38;;;;;;;;;;;-2.20;95.80;;;;;;5030708;28;19963;-85
2022/03/09 07:04:03;;;;;;;;;;;-2.10;95.60;;;;;;5032270;28;20396;-85
2022/03/09 07:06:29;;;;;;;;;;;-2.00;95.30;;;;;;5014178;28;20011;-85
2022/03/09 07:08:54;;;;;;;;;;;-2.00;95.30;;;;;;5013714;28;19924;-85
2022/03/09 07:11:23;;;;;;;;;;;-1.90;96.00;;;;;;5019191;28;19920;-84
2022/03/09 07:13:49;;;;;;;;;;;-1.80;96.60;;;;;;5025958;28;20031;-84
2022/03/09 07:16:14;;;;;;;;;;;-1.70;97.40;;;;;;5033040;28;20453;-84
2022/03/09 07:18:40;;;;;;;;;;;-1.60;97.50;;;;;;5025989;28;19921;-85
2022/03/09 07:21:05;;;;;;;;;;;-1.50;97.40;;;;;;5028287;28;19917;-83
2022/03/09 07:23:31;;;;;;;;;;;-1.40;97.40;;;;;;5038788;28;19939;-86
2022/03/09 07:25:56;;;;;;;;;;;-1.30;98.10;;;;;;5013951;28;19917;-85
2022/03/09 07:28:22;;;;;;;;;;;-1.20;98.40;;;;;;5038538;28;19913;-85
2022/03/09 07:30:48;;;;;;;;;;;-1.20;98.20;;;;;;5036548;28;19952;-86
2022/03/09 07:33:13;;;;;;;;;;;-1.10;98.00;;;;;;5022518;28;19921;-85
2022/03/09 07:35:39;;;;;;;;;;;-1.00;98.10;;;;;;5030273;28;19963;-85
2022/03/09 07:38:06;;;;;;;;;;;-0.90;97.60;;;;;;5045944;28;20313;-84
2022/03/09 07:40:31;;;;;;;;;;;-0.80;97.20;;;;;;5032695;28;20007;-85
2022/03/09 07:42:56;;;;;;;;;;;-0.70;96.90;;;;;;5066535;28;20012;-85
2022/03/09 07:45:22;;;;;;;;;;;-0.60;96.40;;;;;;5033761;28;19921;-85
2022/03/09 07:47:47;;;;;;;;;;;-0.60;95.80;;;;;;5066432;28;19913;-85
2022/03/09 07:50:13;;;;;;;;;;;-0.40;95.00;;;;;;5025298;28;19917;-84
2022/03/09 07:52:39;;;;;;;;;;;-0.30;94.00;;;;;;5030435;28;19952;-84
2022/03/09 07:55:05;;;;;;;;;;;-0.20;92.70;;;;;;5033268;28;19917;-85
2022/03/09 07:57:31;;;;;;;;;;;-0.10;92.10;;;;;;5049634;28;19927;-85
2022/03/09 07:59:56;;;;;;;;;;;0.10;91.70;;;;;;5057426;28;20369;-85
2022/03/09 08:02:22;;;;;;;;;;;0.20;89.70;;;;;;5039550;28;19967;-85
2022/03/09 08:04:47;;;;;;;;;;;0.40;86.00;;;;;;5016832;28;19921;-85
2022/03/09 08:07:12;;;;;;;;;;;0.50;84.50;;;;;;5039442;28;19952;-84
2022/03/09 08:09:38;;;;;;;;;;;0.60;83.70;;;;;;5013745;28;19913;-86
2022/03/09 08:12:04;;;;;;;;;;;0.70;81.70;;;;;;5024223;28;19913;-85
2022/03/09 08:14:30;;;;;;;;;;;0.80;81.10;;;;;;5049900;28;20281;-84
2022/03/09 08:16:55;;;;;;;;;;;0.90;79.60;;;;;;5028967;28;19920;-84
2022/03/09 08:19:21;;;;;;;;;;;1.00;78.40;;;;;;5034142;28;19923;-85
2022/03/09 08:21:46;;;;;;;;;;;1.20;76.60;;;;;;5016960;28;19917;-85
2022/03/09 08:24:12;;;;;;;;;;;1.30;76.10;;;;;;5033233;28;19975;-85
2022/03/09 08:26:37;;;;;;;;;;;1.40;75.70;;;;;;5042057;28;19909;-85
2022/03/09 08:29:03;;;;;;;;;;;1.50;75.70;;;;;;5045084;28;19909;-85
2022/03/09 08:31:28;;;;;;;;;;;1.60;76.30;;;;;;5022332;28;20301;-85
2022/03/09 08:33:55;;;;;;;;;;;1.80;76.60;;;;;;5018272;28;20286;-85
2022/03/09 08:36:21;;;;;;;;;;;2.00;74.30;;;;;;5054814;28;19924;-85
2022/03/09 08:38:47;;;;;;;;;;;2.20;72.30;;;;;;5036172;28;20270;-84
2022/03/09 08:41:12;;;;;;;;;;;2.30;70.80;;;;;;5049788;28;19925;-85
2022/03/09 08:43:38;;;;;;;;;;;2.50;69.40;;;;;;5056437;28;20313;-85
2022/03/09 08:46:03;;;;;;;;;;;2.60;68.40;;;;;;5049789;28;19914;-85
2022/03/09 08:48:29;;;;;;;;;;;2.70;66.80;;;;;;5065868;28;20008;-85
2022/03/09 08:50:55;;;;;;;;;;;2.80;65.80;;;;;;5049699;28;19925;-85
2022/03/09 08:53:20;;;;;;;;;;;2.90;65.10;;;;;;5035475;28;20029;-85
2022/03/09 08:55:46;;;;;;;;;;;3.00;64.50;;;;;;5017013;28;20390;-85
2022/03/09 08:58:11;;;;;;;;;;;3.10;63.80;;;;;;5016883;28;19921;-85
2022/03/09 09:00:37;;;;;;;;;;;3.20;63.10;;;;;;5034000;28;19909;-85
2022/03/09 09:03:03;;;;;;;;;;;3.30;62.60;;;;;;5017271;28;20389;-85
2022/03/09 09:05:28;;;;;;;;;;;3.30;62.50;;;;;;5032988;28;19916;-84
2022/03/09 09:07:54;;;;;;;;;;;3.40;62.20;;;;;;5025838;28;19927;-84
2022/03/09 09:10:19;;;;;;;;;;;3.50;61.40;;;;;;5052608;28;20000;-85
2022/03/09 09:12:46;;;;;;;;;;;3.60;60.40;;;;;;5024938;28;19920;-84
2022/03/09 09:15:11;;;;;;;;;;;3.70;59.70;;;;;;5037037;28;19920;-84
2022/03/09 09:17:37;;;;;;;;;;;3.70;59.70;;;;;;5018112;28;19921;-85
2022/03/09 09:20:03;;;;;;;;;;;3.80;59.50;;;;;;5043454;28;20412;-85
2022/03/09 09:22:28;;;;;;;;;;;3.90;59.10;;;;;;5047355;28;20004;-84
2022/03/09 09:24:54;;;;;;;;;;;4.00;58.80;;;;;;5053310;28;20386;-85
2022/03/09 09:27:19;;;;;;;;;;;4.00;58.20;;;;;;5034647;28;19913;-84
2022/03/09 09:29:45;;;;;;;;;;;4.10;57.10;;;;;;5021578;28;19921;-85
2022/03/09 09:32:10;;;;;;;;;;;4.20;56.50;;;;;;5051961;28;19920;-85
2022/03/09 09:34:36;;;;;;;;;;;4.30;55.40;;;;;;5035393;28;19916;-84
2022/03/09 09:37:02;;;;;;;;;;;4.40;55.40;;;;;;5049733;28;19916;-85
2022/03/09 09:39:28;;;;;;;;;;;4.50;55.40;;;;;;5053257;28;19928;-84
2022/03/09 09:41:53;;;;;;;;;;;4.50;55.70;;;;;;5051932;28;20336;-85
2022/03/09 09:44:20;;;;;;;;;;;4.60;54.80;;;;;;5035210;28;19935;-85
2022/03/09 09:46:46;;;;;;;;;;;4.70;54.40;;;;;;5052557;28;19908;-85
2022/03/09 09:49:13;;;;;;;;;;;4.70;54.60;;;;;;5052074;28;19924;-85
2022/03/09 09:51:39;;;;;;;;;;;4.80;54.60;;;;;;5051756;28;19967;-84
2022/03/09 09:54:05;;;;;;;;;;;4.80;53.70;;;;;;5051604;28;20073;-85
2022/03/09 09:56:34;;;;;;;;;;;4.90;52.40;;;;;;5051728;28;19909;-85
2022/03/09 09:59:00;;;;;;;;;;;5.00;52.10;;;;;;5051499;28;20293;-85
2022/03/09 10:01:26;;;;;;;;;;;5.10;51.50;;;;;;5053016;28;19913;-85
2022/03/09 10:03:51;;;;;;;;;;;5.20;51.50;;;;;;5051722;28;20400;-84
2022/03/09 10:06:16;;;;;;;;;;;5.40;51.10;;;;;;5034887;28;19917;-85
2022/03/09 10:08:58;;;;;;;;;;;5.50;50.20;;;;;;5052341;28;19967;-84
2022/03/09 10:11:23;;;;;;;;;;;5.60;49.80;;;;;;5051624;28;19961;-84
2022/03/09 10:13:49;;;;;;;;;;;5.70;49.60;;;;;;5051340;28;19913;-85
2022/03/09 10:16:16;;;;;;;;;;;5.90;49.10;;;;;;5051335;28;19921;-84
2022/03/09 10:18:49;;;;;;;;;;;6.00;48.80;;;;;;5067410;28;19921;-85
2022/03/09 10:21:17;;;;;;;;;;;6.10;48.80;;;;;;5060795;28;19912;-84
2022/03/09 10:23:54;;;;;;;;;;;6.20;48.40;;;;;;5051797;28;20345;-85
2022/03/09 10:26:22;;;;;;;;;;;6.20;48.20;;;;;;5068304;28;19954;-85
2022/03/09 10:28:54;;;;;;;;;;;6.30;48.70;;;;;;5050863;28;19920;-85
2022/03/09 10:31:30;;;;;;;;;;;6.30;49.00;;;;;;5051177;28;19909;-85
2022/03/09 10:34:09;;;;;;;;;;;6.40;49.20;;;;;;5050793;28;19909;-85
2022/03/09 10:36:35;;;;;;;;;;;6.40;49.20;;;;;;5066882;28;19920;-86
2022/03/09 10:39:14;;;;;;;;;;;6.50;49.10;;;;;;5051000;28;19958;-85
2022/03/09 10:41:40;;;;;;;;;;;6.50;48.50;;;;;;5050522;28;19920;-85
2022/03/09 10:44:06;;;;;;;;;;;6.60;48.70;;;;;;5050866;28;19931;-86
2022/03/09 10:46:40;;;;;;;;;;;6.70;47.70;;;;;;5051761;28;19920;-84
2022/03/09 10:49:07;;;;;;;;;;;6.80;48.60;;;;;;5052065;28;19909;-84
2022/03/09 10:51:33;;;;;;;;;;;7.00;48.50;;;;;;5067112;28;20372;-86
2022/03/09 10:54:00;;;;;;;;;;;7.00;47.50;;;;;;5067418;28;19962;-84
2022/03/09 10:56:25;;;;;;;;;;;7.10;47.00;;;;;;5050632;28;19913;-85
2022/03/09 10:58:51;;;;;;;;;;;7.20;47.10;;;;;;5033412;28;19971;-85
2022/03/09 11:01:17;;;;;;;;;;;7.30;47.40;;;;;;5033873;28;19916;-85
2022/03/09 11:03:44;;;;;;;;;;;7.40;46.60;;;;;;5051817;28;19954;-85
2022/03/09 11:06:10;;;;;;;;;;;7.40;46.10;;;;;;5052135;28;19908;-85
2022/03/09 11:08:36;;;;;;;;;;;7.50;46.30;;;;;;5033175;28;20004;-86
2022/03/09 11:11:02;;;;;;;;;;;7.60;46.70;;;;;;5050369;28;19909;-86
2022/03/09 11:13:29;;;;;;;;;;;7.70;46.40;;;;;;5050280;28;19909;-85
2022/03/09 11:15:54;;;;;;;;;;;7.70;45.90;;;;;;5050713;28;20076;-85
2022/03/09 11:18:21;;;;;;;;;;;7.80;46.00;;;;;;5050868;28;19913;-85
2022/03/09 11:20:52;;;;;;;;;;;7.90;45.80;;;;;;5051687;28;19920;-85
2022/03/09 11:23:20;;;;;;;;;;;8.00;46.10;;;;;;5050339;28;20682;-85
2022/03/09 11:25:50;;;;;;;;;;;8.20;46.10;;;;;;5050033;28;20000;-85
2022/03/09 11:28:25;;;;;;;;;;;8.20;45.70;;;;;;5050491;28;19909;-85
2022/03/09 11:30:58;;;;;;;;;;;8.30;45.70;;;;;;5051692;28;19920;-85
2022/03/09 11:33:36;;;;;;;;;;;8.40;45.80;;;;;;5049858;28;19908;-85
2022/03/09 11:36:01;;;;;;;;;;;8.50;45.90;;;;;;5066938;28;20357;-85
2022/03/09 11:38:33;;;;;;;;;;;8.60;44.70;;;;;;5049650;28;19962;-85
2022/03/09 11:41:14;;;;;;;;;;;8.60;43.50;;;;;;5066983;28;20397;-85
2022/03/09 11:43:40;;;;;;;;;;;8.80;43.40;;;;;;5067067;28;19912;-85
2022/03/09 11:46:06;;;;;;;;;;;8.90;43.80;;;;;;5050617;28;19909;-85
2022/03/09 11:48:50;;;;;;;;;;;8.90;42.60;;;;;;5050230;28;19939;-85
2022/03/09 11:51:16;;;;;;;;;;;9.00;43.00;;;;;;5066371;28;20007;-85
2022/03/09 11:53:43;;;;;;;;;;;9.00;42.20;;;;;;5048830;28;20444;-85
2022/03/09 11:56:27;;;;;;;;;;;9.10;42.10;;;;;;5049779;28;19908;-85
2022/03/09 11:59:08;;;;;;;;;;;9.10;42.00;;;;;;5065634;28;19919;-85
2022/03/09 12:01:52;;;;;;;;;;;9.20;42.20;;;;;;5066360;28;19913;-85
2022/03/09 12:04:36;;;;;;;;;;;9.30;41.60;;;;;;5066412;28;19909;-85
2022/03/09 12:07:02;;;;;;;;;;;9.30;40.60;;;;;;5065750;28;19909;-85
2022/03/09 12:09:47;;;;;;;;;;;9.40;40.60;;;;;;5066152;28;19924;-85
2022/03/09 12:12:12;;;;;;;;;;;9.40;41.00;;;;;;5066108;28;19919;-85
2022/03/09 12:14:56;;;;;;;;;;;9.50;40.90;;;;;;5050700;28;20003;-85
2022/03/09 12:17:29;;;;;;;;;;;9.50;41.00;;;;;;5065328;28;19916;-85
2022/03/09 12:20:37;;;;;;;;;;;9.60;40.70;;;;;;5050685;28;19992;-85
2022/03/09 12:23:03;;;;;;;;;;;9.60;41.00;;;;;;5006314;28;19909;-85
2022/03/09 12:25:35;;;;;;;;;;;9.70;41.20;;;;;;5074741;22;20019;-87
2022/03/09 12:28:19;;;;;;;;;;;9.80;41.50;;;;;;5068145;28;19919;-87
2022/03/09 12:30:47;;;;;;;;;;;9.80;42.10;;;;;;5068772;28;19919;-86
2022/03/09 12:33:32;;;;;;;;;;;9.90;42.60;;;;;;5068980;28;20003;-87
2022/03/09 12:36:05;;;;;;;;;;;10.00;42.40;;;;;;5065608;28;19912;-85
2022/03/09 12:38:34;;;;;;;;;;;10.00;41.20;;;;;;5048041;28;19925;-84
2022/03/09 12:41:00;;;;;;;;;;;10.10;40.30;;;;;;5048764;28;20365;-85
2022/03/09 12:43:26;;;;;;;;;;;10.10;40.10;;;;;;5065038;28;19913;-85
2022/03/09 12:45:52;;;;;;;;;;;10.10;40.20;;;;;;5048699;28;20300;-86
2022/03/09 12:48:18;;;;;;;;;;;10.10;40.70;;;;;;5048213;28;19963;-85
2022/03/09 12:50:47;;;;;;;;;;;10.20;41.00;;;;;;5065279;28;19963;-85
2022/03/09 12:53:22;;;;;;;;;;;10.20;40.40;;;;;;5064911;28;20343;-86
2022/03/09 12:55:48;;;;;;;;;;;10.20;40.80;;;;;;5048767;28;19913;-85
2022/03/09 12:58:23;;;;;;;;;;;10.30;41.70;;;;;;5048346;28;19913;-85
2022/03/09 13:01:00;;;;;;;;;;;10.30;41.60;;;;;;5049888;28;19909;-85
2022/03/09 13:03:28;;;;;;;;;;;10.30;43.30;;;;;;5048172;28;19913;-85
2022/03/09 13:05:53;;;;;;;;;;;10.40;43.20;;;;;;5052224;28;19921;-85
2022/03/09 13:08:19;;;;;;;;;;;10.50;43.80;;;;;;5068297;28;19972;-85
2022/03/09 13:10:49;;;;;;;;;;;10.60;42.60;;;;;;5068690;28;19992;-85
2022/03/09 13:13:14;;;;;;;;;;;10.60;42.10;;;;;;5068239;28;20410;-85
2022/03/09 13:15:40;;;;;;;;;;;10.60;42.10;;;;;;5068502;28;19912;-87
2022/03/09 13:18:06;;;;;;;;;;;10.60;40.60;;;;;;5067946;28;19916;-85
2022/03/09 13:20:32;;;;;;;;;;;10.60;40.00;;;;;;5051947;28;19913;-85
2022/03/09 13:22:58;;;;;;;;;;;10.50;39.40;;;;;;5052873;28;20288;-85
2022/03/09 13:25:30;;;;;;;;;;;10.60;39.30;;;;;;5051810;28;20354;-85
2022/03/09 13:28:04;;;;;;;;;;;10.60;38.90;;;;;;5051204;28;19912;-85
2022/03/09 13:30:30;;;;;;;;;;;10.60;39.70;;;;;;5051606;28;19913;-85
2022/03/09 13:32:56;;;;;;;;;;;10.60;38.40;;;;;;5051366;28;19983;-85
2022/03/09 13:35:23;;;;;;;;;;;10.50;39.10;;;;;;5051507;28;19966;-86
2022/03/09 13:37:49;;;;;;;;;;;10.50;39.00;;;;;;5052441;28;20375;-86
2022/03/09 13:40:15;;;;;;;;;;;10.50;39.30;;;;;;5051417;28;19919;-85
2022/03/09 13:42:41;;;;;;;;;;;10.40;39.70;;;;;;5051188;28;20007;-85
2022/03/09 13:45:14;;;;;;;;;;;10.40;39.40;;;;;;5051078;28;19919;-87
2022/03/09 13:48:00;;;;;;;;;;;10.30;39.10;;;;;;5050872;28;19962;-84
2022/03/09 13:50:30;;;;;;;;;;;10.30;40.10;;;;;;5051499;28;19920;-85
2022/03/09 13:53:07;;;;;;;;;;;10.40;40.50;;;;;;5051222;28;19916;-86
2022/03/09 13:55:41;;;;;;;;;;;10.40;40.20;;;;;;5051112;28;19916;-86
2022/03/09 13:58:10;;;;;;;;;;;10.40;39.80;;;;;;5050463;28;20003;-85
2022/03/09 14:00:37;;;;;;;;;;;10.40;40.10;;;;;;5051094;28;19913;-85
2022/03/09 14:03:07;;;;;;;;;;;10.40;40.30;;;;;;5050807;28;20003;-86
2022/03/09 14:05:33;;;;;;;;;;;10.40;39.90;;;;;;5051180;28;20377;-85
2022/03/09 14:07:59;;;;;;;;;;;10.40;38.50;;;;;;5051802;28;19913;-85
2022/03/09 14:10:26;;;;;;;;;;;10.40;39.10;;;;;;5050947;28;19940;-85
2022/03/09 14:12:53;;;;;;;;;;;10.40;41.50;;;;;;5067508;28;20294;-85
2022/03/09 14:15:19;;;;;;;;;;;10.40;41.80;;;;;;5050432;28;19909;-85
2022/03/09 14:17:44;;;;;;;;;;;10.40;43.10;;;;;;5050135;28;19923;-85
2022/03/09 14:20:11;;;;;;;;;;;10.40;41.80;;;;;;5050746;28;19916;-86
2022/03/09 14:22:42;;;;;;;;;;;10.40;40.30;;;;;;5050279;28;19912;-85